createdAt,value
2022-11-27T00:10:31.837Z,101555
2022-11-27T00:16:30.166Z,101557
2022-11-27T00:22:28.820Z,101531
2022-11-27T00:28:33.746Z,101524
2022-11-27T00:34:46.434Z,101540
2022-11-27T00:40:40.324Z,101548
2022-11-27T00:46:34.244Z,101549
2022-11-27T00:52:26.662Z,101543
2022-11-27T00:58:30.837Z,101537
2022-11-27T01:11:07.937Z,101537
2022-11-27T01:23:24.997Z,101524
2022-11-27T01:29:20.540Z,101525
2022-11-27T01:35:26.567Z,101519
2022-11-27T01:41:34.454Z,101512
2022-11-27T01:53:46.811Z,101501
2022-11-27T01:59:49.534Z,101490
2022-11-27T02:05:46.722Z,101500
2022-11-27T02:11:50.914Z,101486
2022-11-27T02:19:04.236Z,101487
2022-11-27T02:25:08.343Z,101482
2022-11-27T02:31:26.092Z,101482
2022-11-27T02:37:46.054Z,101468
2022-11-27T02:50:39.996Z,101457
2022-11-27T02:56:40.327Z,101450
2022-11-27T03:02:51.538Z,101445
2022-11-27T03:08:50.469Z,101427
2022-11-27T03:21:12.444Z,101402
2022-11-27T03:27:21.636Z,101407
2022-11-27T03:33:40.799Z,101398
2022-11-27T03:39:48.972Z,101399
2022-11-27T03:46:05.336Z,101404
2022-11-27T03:52:22.219Z,101402
2022-11-27T03:58:13.946Z,101400
2022-11-27T04:04:09.404Z,101411
2022-11-27T04:10:09.639Z,101391
2022-11-27T04:17:01.633Z,101377
2022-11-27T04:23:28.904Z,101379
2022-11-27T04:36:04.609Z,101339
2022-11-27T04:42:31.077Z,101340
2022-11-27T04:48:49.799Z,101340
2022-11-27T04:55:20.042Z,101318
2022-11-27T05:01:27.592Z,101309
2022-11-27T05:07:32.869Z,101298
2022-11-27T05:27:04.642Z,101296
2022-11-27T05:46:46.156Z,101269
2022-11-27T05:52:43.285Z,101266
2022-11-27T05:58:51.222Z,101259
2022-11-27T06:11:31.474Z,101256
2022-11-27T06:24:19.115Z,101257
2022-11-27T06:30:39.509Z,101246
2022-11-27T06:37:22.131Z,101234
2022-11-27T06:50:17.123Z,101251
2022-11-27T07:41:52.139Z,101165
2022-11-27T08:08:11.103Z,101127
2022-11-27T08:21:16.455Z,101124
2022-11-27T08:27:21.497Z,101116
2022-11-27T08:33:25.100Z,101120
2022-11-27T08:39:30.338Z,101118
2022-11-27T08:45:39.766Z,101097
2022-11-27T08:51:53.121Z,101095
2022-11-27T08:57:45.609Z,101082
2022-11-27T09:03:37.881Z,101072
2022-11-27T09:09:30.686Z,101080
2022-11-27T09:15:21.944Z,101087
2022-11-27T09:21:13.849Z,101126
2022-11-27T09:27:06.969Z,101117
2022-11-27T09:33:13.292Z,101090
2022-11-27T09:39:10.831Z,101074
2022-11-27T09:45:26.290Z,101065
2022-11-27T09:51:17.514Z,101058
2022-11-27T09:57:25.953Z,101054
2022-11-27T10:03:18.832Z,101060
2022-11-27T10:09:12.739Z,101064
2022-11-27T10:15:08.173Z,101047
2022-11-27T10:21:12.895Z,101033
2022-11-27T10:27:29.110Z,101021
2022-11-27T10:34:43.949Z,101025
2022-11-27T10:40:47.226Z,101019
2022-11-27T10:46:46.993Z,101011
2022-11-27T10:52:48.222Z,101005
2022-11-27T11:06:22.510Z,100987
2022-11-27T11:12:13.547Z,100975
2022-11-27T11:18:05.614Z,100969
2022-11-27T11:24:03.771Z,100969
2022-11-27T11:30:02.357Z,100950
2022-11-27T11:42:01.112Z,100931
2022-11-27T11:54:17.670Z,100921
2022-11-27T12:00:14.319Z,100903
2022-11-27T12:06:10.202Z,100897
2022-11-27T12:12:02.910Z,100886
2022-11-27T12:17:56.914Z,100860
2022-11-27T12:23:57.477Z,100840
2022-11-27T12:29:48.935Z,100828
2022-11-27T12:35:41.697Z,100813
2022-11-27T12:48:17.267Z,100776
2022-11-27T12:54:09.947Z,100754
2022-11-27T13:00:00.423Z,100738
2022-11-27T13:06:00.968Z,100720
2022-11-27T13:11:56.046Z,100703
2022-11-27T13:17:54.306Z,100706
2022-11-27T13:23:45.676Z,100700
2022-11-27T13:29:35.840Z,100681
2022-11-27T13:35:28.324Z,100677
2022-11-27T13:41:19.018Z,100685
2022-11-27T13:47:17.026Z,100690
2022-11-27T13:53:07.860Z,100690
2022-11-27T13:59:08.761Z,100690
2022-11-27T14:05:01.377Z,100683
2022-11-27T14:10:55.752Z,100682
2022-11-27T14:16:48.956Z,100679
2022-11-27T14:23:19.435Z,100699
2022-11-27T14:29:27.922Z,100711
2022-11-27T14:35:41.964Z,100695
2022-11-27T14:41:36.045Z,100686
2022-11-27T14:47:40.175Z,100691
2022-11-27T14:53:44.106Z,100698
2022-11-27T14:59:35.562Z,100681
2022-11-27T15:05:42.433Z,100678
2022-11-27T15:12:01.718Z,100696
2022-11-27T15:18:01.790Z,100691
2022-11-27T15:23:56.769Z,100690
2022-11-27T15:30:06.136Z,100670
2022-11-27T15:36:00.014Z,100657
2022-11-27T15:42:17.142Z,100652
2022-11-27T15:48:06.982Z,100657
2022-11-27T15:54:00.757Z,100645
2022-11-27T15:59:55.443Z,100631
2022-11-27T16:05:50.967Z,100621
2022-11-27T16:11:55.122Z,100614
2022-11-27T16:17:50.918Z,100602
2022-11-27T16:23:43.644Z,100599
2022-11-27T16:29:34.665Z,100580
2022-11-27T16:35:30.254Z,100563
2022-11-27T16:41:21.696Z,100543
2022-11-27T16:47:35.282Z,100535
2022-11-27T16:53:33.650Z,100538
2022-11-27T16:59:27.188Z,100536
2022-11-27T17:05:20.192Z,100525
2022-11-27T17:11:14.562Z,100528
2022-11-27T17:17:26.444Z,100527
2022-11-27T17:23:40.012Z,100523
2022-11-27T17:29:49.552Z,100504
2022-11-27T17:35:43.705Z,100482
2022-11-27T17:41:34.789Z,100482
2022-11-27T17:47:27.141Z,100468
2022-11-27T17:53:23.235Z,100450
2022-11-27T17:59:16.144Z,100443
2022-11-27T18:05:21.686Z,100446
2022-11-27T18:11:38.514Z,100440
2022-11-27T18:17:32.685Z,100438
2022-11-27T18:23:23.194Z,100419
2022-11-27T18:29:15.098Z,100407
2022-11-27T18:35:08.874Z,100387
2022-11-27T18:41:00.333Z,100366
2022-11-27T18:46:52.419Z,100362
2022-11-27T18:52:43.394Z,100365
2022-11-27T18:58:39.957Z,100361
2022-11-27T19:04:34.007Z,100372
2022-11-27T19:10:23.988Z,100380
2022-11-27T19:23:22.913Z,100379
2022-11-27T19:29:25.440Z,100379
2022-11-27T19:35:23.324Z,100382
2022-11-27T19:41:27.639Z,100372
2022-11-27T19:54:02.588Z,100387
2022-11-27T20:00:15.038Z,100372
2022-11-27T20:06:15.957Z,100364
2022-11-27T20:12:18.274Z,100363
2022-11-27T20:18:15.288Z,100348
2022-11-27T20:24:22.427Z,100338
2022-11-27T20:30:20.245Z,100329
2022-11-27T20:36:12.919Z,100319
2022-11-27T20:42:17.793Z,100315
2022-11-27T20:48:11.505Z,100302
2022-11-27T20:49:57.055Z,100290
2022-11-27T20:56:04.927Z,100279
2022-11-27T21:02:02.272Z,100259
2022-11-27T21:08:02.287Z,100261
2022-11-27T21:13:59.343Z,100272
2022-11-27T21:19:50.906Z,100276
2022-11-27T21:25:42.462Z,100292
2022-11-27T21:31:47.322Z,100294
2022-11-27T21:37:38.085Z,100297
2022-11-27T21:43:35.179Z,100297
2022-11-27T21:49:24.435Z,100284
2022-11-27T21:55:16.099Z,100282
2022-11-27T22:01:07.455Z,100283
2022-11-27T22:06:59.910Z,100272
2022-11-27T22:12:51.256Z,100262
2022-11-27T22:18:43.529Z,100260
2022-11-27T22:24:42.562Z,100249
2022-11-27T22:30:36.058Z,100232
2022-11-27T22:36:28.691Z,100231
2022-11-27T22:42:21.559Z,100222
2022-11-27T22:48:22.591Z,100202
2022-11-27T22:54:17.864Z,100185
2022-11-27T23:00:18.946Z,100193
2022-11-27T23:06:10.512Z,100194
2022-11-27T23:12:03.442Z,100199
2022-11-27T23:17:55.225Z,100202
2022-11-27T23:23:48.073Z,100193
2022-11-27T23:29:39.959Z,100191
2022-11-27T23:35:34.700Z,100175
2022-11-27T23:41:26.241Z,100175
2022-11-27T23:47:17.620Z,100178
2022-11-27T23:53:11.654Z,100172
2022-11-27T23:59:06.187Z,100172
